Tropical Cyclones
[Index]
Main Index Home Page Stock Weather Photos Extreme Storms Discussion Storm News and Storm Chasing Reports Tropical Cyclones / Hurricanes / Typhoons Weather Data and Links Wild Fires / Bushfires Weather Observation Techniques Weather Picture Catalogue Tornado Pictures and Reports Stock Video Footage and DVDs for sale
Season 1988-1989 Tropical Cyclone KIRRILY Track Map
Season 1988-1989 Summaries: [BoM-AU] [JTWC-AU] [JTWC-SIO] [JTWC-SPAC] [JTWC-SH]
<<- Previous TC | BoM 1988-1989 Season | Next TC ->>

click for intensity scale information  Lat/long Grid: Show Hide

 Date Labels: Show Hide

Bureau of Meteorology Tropical Cyclone Data

Name: KIRRILY
Number: 710 / 198889_04

03 Feb 1989 12:00 UTC to 11 Feb 1989 12:00 UTC

    date/time    lat    long    hPa   cat  kts
1989-02-03 12   11.0   106.2   1006                     
1989-02-03 18   10.6   106.5   1005                     
1989-02-04 00   10.3   107.0   1004                     
1989-02-04 06   10.5   107.4   1004                     
1989-02-04 12   10.9   107.8   1004                     
1989-02-04 18   11.2   108.1   1003                     
1989-02-05 00   11.6   108.5   1002         21          
1989-02-05 06   11.8   108.8   1000         25          
1989-02-05 12   12.2   109.0    998         29          
1989-02-05 18   12.6   109.2    997         31          
1989-02-06 00   13.0   109.3    992    1    39          
1989-02-06 06   13.5   109.4    990    1    41          
1989-02-06 12   14.0   109.4    988    1    45          
1989-02-06 18   14.6   109.4    986    1    47          
1989-02-07 00   15.1   109.4    985    2    47          
1989-02-07 06   15.6   109.4    980    2    52          
1989-02-07 12   16.2   109.4    975    2    58          
1989-02-07 18   16.9   109.3    972    2    60          
1989-02-08 00   17.5   109.2    970    3    64          
1989-02-08 06   18.2   109.0    968    3    66          
1989-02-08 12   18.9   108.8    966    3    68          
1989-02-08 18   19.6   108.4    965    3    68          
1989-02-09 00   20.2   108.0    960    3    72          
1989-02-09 06   21.0   107.1    955    4    76          
1989-02-09 12   22.3   106.4    955    4    76          
1989-02-09 18   23.2   105.2    970    3    64          
1989-02-10 00   23.8   104.4    985    2    47          
1989-02-10 06   24.5   103.4    988    1    45          
1989-02-10 12   24.7   102.5    992    1    39          
1989-02-10 18   24.9   102.8    996         33          
1989-02-11 00   25.0   103.0   1000         25          
1989-02-11 06   24.4   102.0   1004                     
1989-02-11 12   23.9   102.0   1008                     
Winds are 10-min average.

Tropical cyclone tracks developed by Michael Bath using data from the Bureau of Meteorology and Google Maps.


[Australian Severe Weather index] [Copyright Notice] [Email Contacts] [Search This Site] [Privacy Policy]
Document: tropical_cyclone_kirrily.htm Updated: 30 May 2013